sensor_id;sensor_type;location;lat;lon;timestamp;temperature;humidity
33761;DHT22;20084;47.912;19.044;2023-04-03T00:01:10;8.40;99.90
33761;DHT22;20084;47.912;19.044;2023-04-03T00:03:36;8.40;99.90
33761;DHT22;20084;47.912;19.044;2023-04-03T00:06:03;8.40;99.90
33761;DHT22;20084;47.912;19.044;2023-04-03T00:08:29;8.40;99.90
33761;DHT22;20084;47.912;19.044;2023-04-03T00:10:56;8.30;99.90
33761;DHT22;20084;47.912;19.044;2023-04-03T00:13:23;8.20;99.90
33761;DHT22;20084;47.912;19.044;2023-04-03T00:15:49;8.20;99.90
33761;DHT22;20084;47.912;19.044;2023-04-03T00:18:14;8.10;99.90
33761;DHT22;20084;47.912;19.044;2023-04-03T00:20:40;8.10;99.90
33761;DHT22;20084;47.912;19.044;2023-04-03T00:23:06;8.00;99.90
33761;DHT22;20084;47.912;19.044;2023-04-03T00:25:32;8.00;99.90
33761;DHT22;20084;47.912;19.044;2023-04-03T00:27:58;8.00;99.90
33761;DHT22;20084;47.912;19.044;2023-04-03T00:30:24;7.90;99.90
33761;DHT22;20084;47.912;19.044;2023-04-03T00:32:51;7.90;99.90
33761;DHT22;20084;47.912;19.044;2023-04-03T00:35:18;7.90;99.90
33761;DHT22;20084;47.912;19.044;2023-04-03T00:37:44;7.90;99.90
33761;DHT22;20084;47.912;19.044;2023-04-03T00:40:11;7.90;99.90
33761;DHT22;20084;47.912;19.044;2023-04-03T00:42:38;7.80;99.90
33761;DHT22;20084;47.912;19.044;2023-04-03T00:47:30;7.80;99.90
33761;DHT22;20084;47.912;19.044;2023-04-03T00:49:57;7.80;99.90
33761;DHT22;20084;47.912;19.044;2023-04-03T00:52:27;7.70;99.90
33761;DHT22;20084;47.912;19.044;2023-04-03T00:54:58;7.70;99.90
33761;DHT22;20084;47.912;19.044;2023-04-03T00:57:24;7.70;99.90
33761;DHT22;20084;47.912;19.044;2023-04-03T00:59:54;7.70;99.90
33761;DHT22;20084;47.912;19.044;2023-04-03T01:02:22;7.60;99.90
33761;DHT22;20084;47.912;19.044;2023-04-03T01:04:48;7.60;99.90
33761;DHT22;20084;47.912;19.044;2023-04-03T01:07:18;7.70;99.90
33761;DHT22;20084;47.912;19.044;2023-04-03T01:09:45;7.70;99.90
33761;DHT22;20084;47.912;19.044;2023-04-03T01:12:22;7.70;99.90
33761;DHT22;20084;47.912;19.044;2023-04-03T01:14:51;7.70;99.90
33761;DHT22;20084;47.912;19.044;2023-04-03T01:17:39;7.60;99.90
33761;DHT22;20084;47.912;19.044;2023-04-03T01:25:23;7.60;99.90
33761;DHT22;20084;47.912;19.044;2023-04-03T01:27:49;7.50;99.90
33761;DHT22;20084;47.912;19.044;2023-04-03T01:30:18;7.70;99.90
33761;DHT22;20084;47.912;19.044;2023-04-03T01:32:44;7.80;99.90
33761;DHT22;20084;47.912;19.044;2023-04-03T01:35:10;7.70;99.90
33761;DHT22;20084;47.912;19.044;2023-04-03T01:37:36;7.60;99.90
33761;DHT22;20084;47.912;19.044;2023-04-03T01:40:03;7.70;99.90
33761;DHT22;20084;47.912;19.044;2023-04-03T01:42:29;7.80;99.90
33761;DHT22;20084;47.912;19.044;2023-04-03T01:44:55;7.80;99.90
33761;DHT22;20084;47.912;19.044;2023-04-03T01:47:22;7.80;99.90
33761;DHT22;20084;47.912;19.044;2023-04-03T01:49:47;7.90;99.90
33761;DHT22;20084;47.912;19.044;2023-04-03T01:52:13;7.90;99.90
33761;DHT22;20084;47.912;19.044;2023-04-03T01:54:39;7.80;99.90
33761;DHT22;20084;47.912;19.044;2023-04-03T01:57:05;7.80;99.90
33761;DHT22;20084;47.912;19.044;2023-04-03T01:59:30;7.80;99.90
33761;DHT22;20084;47.912;19.044;2023-04-03T02:01:56;7.80;99.90
33761;DHT22;20084;47.912;19.044;2023-04-03T02:04:22;7.90;99.90
33761;DHT22;20084;47.912;19.044;2023-04-03T02:06:48;7.80;99.90
33761;DHT22;20084;47.912;19.044;2023-04-03T02:09:14;7.70;99.90
33761;DHT22;20084;47.912;19.044;2023-04-03T02:11:40;7.70;99.90
33761;DHT22;20084;47.912;19.044;2023-04-03T02:14:05;7.60;99.90
33761;DHT22;20084;47.912;19.044;2023-04-03T02:16:31;7.40;99.90
33761;DHT22;20084;47.912;19.044;2023-04-03T02:18:57;7.30;99.90
33761;DHT22;20084;47.912;19.044;2023-04-03T02:21:23;7.40;99.90
33761;DHT22;20084;47.912;19.044;2023-04-03T02:23:49;7.40;99.90
33761;DHT22;20084;47.912;19.044;2023-04-03T02:26:15;7.50;99.90
33761;DHT22;20084;47.912;19.044;2023-04-03T02:28:42;7.50;99.90
33761;DHT22;20084;47.912;19.044;2023-04-03T02:31:08;7.40;99.90
33761;DHT22;20084;47.912;19.044;2023-04-03T02:33:35;7.40;99.90
33761;DHT22;20084;47.912;19.044;2023-04-03T02:36:04;7.40;99.90
33761;DHT22;20084;47.912;19.044;2023-04-03T02:38:31;7.40;99.90
33761;DHT22;20084;47.912;19.044;2023-04-03T02:41:09;7.30;99.90
33761;DHT22;20084;47.912;19.044;2023-04-03T02:43:36;7.30;99.90
33761;DHT22;20084;47.912;19.044;2023-04-03T02:46:02;7.20;99.90
33761;DHT22;20084;47.912;19.044;2023-04-03T02:48:28;7.30;99.90
33761;DHT22;20084;47.912;19.044;2023-04-03T02:50:54;7.30;99.90
33761;DHT22;20084;47.912;19.044;2023-04-03T02:53:20;7.40;99.90
33761;DHT22;20084;47.912;19.044;2023-04-03T02:55:45;7.30;99.90
33761;DHT22;20084;47.912;19.044;2023-04-03T02:58:11;7.30;99.90
33761;DHT22;20084;47.912;19.044;2023-04-03T03:00:37;7.30;99.90
33761;DHT22;20084;47.912;19.044;2023-04-03T03:03:03;7.30;99.90
33761;DHT22;20084;47.912;19.044;2023-04-03T03:05:29;7.40;99.90
33761;DHT22;20084;47.912;19.044;2023-04-03T03:07:55;7.40;99.90
33761;DHT22;20084;47.912;19.044;2023-04-03T03:10:22;7.40;99.90
33761;DHT22;20084;47.912;19.044;2023-04-03T03:12:47;7.30;99.90
33761;DHT22;20084;47.912;19.044;2023-04-03T03:15:13;7.30;99.90
33761;DHT22;20084;47.912;19.044;2023-04-03T03:17:41;7.40;99.90
33761;DHT22;20084;47.912;19.044;2023-04-03T03:20:07;7.40;99.90
33761;DHT22;20084;47.912;19.044;2023-04-03T03:22:33;7.40;99.90
33761;DHT22;20084;47.912;19.044;2023-04-03T03:24:59;7.40;99.90
33761;DHT22;20084;47.912;19.044;2023-04-03T03:27:26;7.50;99.90
33761;DHT22;20084;47.912;19.044;2023-04-03T03:29:52;7.50;99.90
33761;DHT22;20084;47.912;19.044;2023-04-03T03:32:17;7.50;99.90
33761;DHT22;20084;47.912;19.044;2023-04-03T03:34:43;7.60;99.90
33761;DHT22;20084;47.912;19.044;2023-04-03T03:37:09;7.60;99.90
33761;DHT22;20084;47.912;19.044;2023-04-03T03:39:34;7.50;99.90
33761;DHT22;20084;47.912;19.044;2023-04-03T03:42:00;7.40;99.90
33761;DHT22;20084;47.912;19.044;2023-04-03T03:44:26;7.40;99.90
33761;DHT22;20084;47.912;19.044;2023-04-03T03:46:53;7.30;99.90
33761;DHT22;20084;47.912;19.044;2023-04-03T03:49:18;7.30;99.90
33761;DHT22;20084;47.912;19.044;2023-04-03T03:51:44;7.30;99.90
33761;DHT22;20084;47.912;19.044;2023-04-03T03:54:10;7.30;99.90
33761;DHT22;20084;47.912;19.044;2023-04-03T03:56:36;7.20;99.90
33761;DHT22;20084;47.912;19.044;2023-04-03T03:59:02;7.20;99.90
33761;DHT22;20084;47.912;19.044;2023-04-03T04:01:28;7.30;99.90
33761;DHT22;20084;47.912;19.044;2023-04-03T04:03:54;7.20;99.90
33761;DHT22;20084;47.912;19.044;2023-04-03T04:06:20;7.00;99.90
33761;DHT22;20084;47.912;19.044;2023-04-03T04:08:46;7.10;99.90
33761;DHT22;20084;47.912;19.044;2023-04-03T04:11:12;7.10;99.90
33761;DHT22;20084;47.912;19.044;2023-04-03T04:13:38;7.10;99.90
33761;DHT22;20084;47.912;19.044;2023-04-03T04:16:03;7.00;99.90
33761;DHT22;20084;47.912;19.044;2023-04-03T04:18:29;7.10;99.90
33761;DHT22;20084;47.912;19.044;2023-04-03T04:20:55;7.00;99.90
33761;DHT22;20084;47.912;19.044;2023-04-03T04:23:21;7.00;99.90
33761;DHT22;20084;47.912;19.044;2023-04-03T04:25:49;7.10;99.90
33761;DHT22;20084;47.912;19.044;2023-04-03T04:28:15;7.00;99.90
33761;DHT22;20084;47.912;19.044;2023-04-03T04:30:41;6.90;99.90
33761;DHT22;20084;47.912;19.044;2023-04-03T04:33:07;7.00;99.90
33761;DHT22;20084;47.912;19.044;2023-04-03T04:35:33;6.90;99.90
33761;DHT22;20084;47.912;19.044;2023-04-03T04:37:59;7.00;99.90
33761;DHT22;20084;47.912;19.044;2023-04-03T04:40:26;7.00;99.90
33761;DHT22;20084;47.912;19.044;2023-04-03T04:42:51;6.90;99.90
33761;DHT22;20084;47.912;19.044;2023-04-03T04:45:17;7.00;99.90
33761;DHT22;20084;47.912;19.044;2023-04-03T04:47:43;7.00;99.90
33761;DHT22;20084;47.912;19.044;2023-04-03T04:50:09;7.00;99.90
33761;DHT22;20084;47.912;19.044;2023-04-03T04:52:35;7.00;99.90
33761;DHT22;20084;47.912;19.044;2023-04-03T04:55:01;7.00;99.90
33761;DHT22;20084;47.912;19.044;2023-04-03T04:57:27;7.00;99.90
33761;DHT22;20084;47.912;19.044;2023-04-03T04:59:52;6.90;99.90
33761;DHT22;20084;47.912;19.044;2023-04-03T05:02:18;7.00;99.90
33761;DHT22;20084;47.912;19.044;2023-04-03T05:04:44;7.00;99.90
33761;DHT22;20084;47.912;19.044;2023-04-03T05:07:10;7.00;99.90
33761;DHT22;20084;47.912;19.044;2023-04-03T05:09:35;7.00;99.90
33761;DHT22;20084;47.912;19.044;2023-04-03T05:12:02;7.10;99.90
33761;DHT22;20084;47.912;19.044;2023-04-03T05:14:28;7.20;99.90
33761;DHT22;20084;47.912;19.044;2023-04-03T05:16:55;7.20;99.90
33761;DHT22;20084;47.912;19.044;2023-04-03T05:19:21;7.20;99.90
33761;DHT22;20084;47.912;19.044;2023-04-03T05:21:48;7.20;99.90
33761;DHT22;20084;47.912;19.044;2023-04-03T05:24:16;7.30;99.90
33761;DHT22;20084;47.912;19.044;2023-04-03T05:26:43;7.30;99.90
33761;DHT22;20084;47.912;19.044;2023-04-03T05:29:09;7.30;99.90
33761;DHT22;20084;47.912;19.044;2023-04-03T05:31:35;7.40;99.90
33761;DHT22;20084;47.912;19.044;2023-04-03T05:34:01;7.30;99.90
33761;DHT22;20084;47.912;19.044;2023-04-03T05:36:26;7.30;99.90
33761;DHT22;20084;47.912;19.044;2023-04-03T05:38:53;7.40;99.90
33761;DHT22;20084;47.912;19.044;2023-04-03T05:41:19;7.40;99.90
33761;DHT22;20084;47.912;19.044;2023-04-03T05:43:46;7.30;99.90
33761;DHT22;20084;47.912;19.044;2023-04-03T05:46:16;7.30;99.90
33761;DHT22;20084;47.912;19.044;2023-04-03T05:48:43;7.30;99.90
33761;DHT22;20084;47.912;19.044;2023-04-03T05:51:23;7.40;99.90
33761;DHT22;20084;47.912;19.044;2023-04-03T05:53:55;7.50;99.90
33761;DHT22;20084;47.912;19.044;2023-04-03T05:56:22;7.60;99.90
33761;DHT22;20084;47.912;19.044;2023-04-03T05:58:47;7.60;99.90
33761;DHT22;20084;47.912;19.044;2023-04-03T06:01:13;7.60;99.90
33761;DHT22;20084;47.912;19.044;2023-04-03T06:03:39;7.50;99.90
33761;DHT22;20084;47.912;19.044;2023-04-03T06:06:06;7.50;99.90
33761;DHT22;20084;47.912;19.044;2023-04-03T06:08:32;7.70;99.90
33761;DHT22;20084;47.912;19.044;2023-04-03T06:10:58;7.70;99.90
33761;DHT22;20084;47.912;19.044;2023-04-03T06:13:24;7.60;99.90
33761;DHT22;20084;47.912;19.044;2023-04-03T06:15:49;7.50;99.90
33761;DHT22;20084;47.912;19.044;2023-04-03T06:18:15;7.40;99.90
33761;DHT22;20084;47.912;19.044;2023-04-03T06:20:40;7.40;99.90
33761;DHT22;20084;47.912;19.044;2023-04-03T06:23:06;7.40;99.90
33761;DHT22;20084;47.912;19.044;2023-04-03T06:25:32;7.40;99.90
33761;DHT22;20084;47.912;19.044;2023-04-03T06:27:58;7.50;99.90
33761;DHT22;20084;47.912;19.044;2023-04-03T06:30:25;7.60;99.90
33761;DHT22;20084;47.912;19.044;2023-04-03T06:32:51;7.80;99.90
33761;DHT22;20084;47.912;19.044;2023-04-03T06:35:17;7.90;99.90
33761;DHT22;20084;47.912;19.044;2023-04-03T06:37:43;7.90;99.90
33761;DHT22;20084;47.912;19.044;2023-04-03T06:40:32;8.00;99.90
33761;DHT22;20084;47.912;19.044;2023-04-03T06:42:58;8.00;99.90
33761;DHT22;20084;47.912;19.044;2023-04-03T06:45:23;8.10;99.90
33761;DHT22;20084;47.912;19.044;2023-04-03T06:47:50;8.00;99.90
33761;DHT22;20084;47.912;19.044;2023-04-03T06:50:16;8.00;99.90
33761;DHT22;20084;47.912;19.044;2023-04-03T06:52:42;8.10;99.90
33761;DHT22;20084;47.912;19.044;2023-04-03T06:55:08;8.20;99.90
33761;DHT22;20084;47.912;19.044;2023-04-03T06:57:35;8.30;99.90
33761;DHT22;20084;47.912;19.044;2023-04-03T07:00:00;8.20;99.90
33761;DHT22;20084;47.912;19.044;2023-04-03T07:02:26;8.20;99.90
33761;DHT22;20084;47.912;19.044;2023-04-03T07:04:52;8.30;99.90
33761;DHT22;20084;47.912;19.044;2023-04-03T07:07:18;8.30;99.90
33761;DHT22;20084;47.912;19.044;2023-04-03T07:09:43;8.20;99.90
33761;DHT22;20084;47.912;19.044;2023-04-03T07:12:09;8.20;99.90
33761;DHT22;20084;47.912;19.044;2023-04-03T07:14:35;8.20;99.30
33761;DHT22;20084;47.912;19.044;2023-04-03T07:17:00;8.20;99.60
33761;DHT22;20084;47.912;19.044;2023-04-03T07:19:26;8.30;99.90
33761;DHT22;20084;47.912;19.044;2023-04-03T07:21:53;8.60;99.90
33761;DHT22;20084;47.912;19.044;2023-04-03T07:24:20;9.00;99.90
33761;DHT22;20084;47.912;19.044;2023-04-03T07:26:49;9.30;99.90
33761;DHT22;20084;47.912;19.044;2023-04-03T07:29:15;9.60;99.90
33761;DHT22;20084;47.912;19.044;2023-04-03T07:31:40;9.80;99.90
33761;DHT22;20084;47.912;19.044;2023-04-03T07:34:06;10.00;97.20
33761;DHT22;20084;47.912;19.044;2023-04-03T07:36:32;10.00;96.30
33761;DHT22;20084;47.912;19.044;2023-04-03T07:38:58;9.90;95.90
33761;DHT22;20084;47.912;19.044;2023-04-03T07:41:24;10.00;97.70
33761;DHT22;20084;47.912;19.044;2023-04-03T07:43:50;10.20;96.20
33761;DHT22;20084;47.912;19.044;2023-04-03T07:46:16;10.30;96.10
33761;DHT22;20084;47.912;19.044;2023-04-03T07:48:42;10.30;95.70
33761;DHT22;20084;47.912;19.044;2023-04-03T07:51:09;10.30;95.00
33761;DHT22;20084;47.912;19.044;2023-04-03T07:53:35;10.20;94.30
33761;DHT22;20084;47.912;19.044;2023-04-03T07:56:01;10.30;95.50
33761;DHT22;20084;47.912;19.044;2023-04-03T07:58:29;10.30;94.60
33761;DHT22;20084;47.912;19.044;2023-04-03T08:00:55;10.40;93.70
33761;DHT22;20084;47.912;19.044;2023-04-03T08:03:21;10.30;94.00
33761;DHT22;20084;47.912;19.044;2023-04-03T08:05:49;10.30;95.10
33761;DHT22;20084;47.912;19.044;2023-04-03T08:08:18;10.40;92.80
33761;DHT22;20084;47.912;19.044;2023-04-03T08:10:45;10.50;93.00
33761;DHT22;20084;47.912;19.044;2023-04-03T08:13:13;10.60;91.80
33761;DHT22;20084;47.912;19.044;2023-04-03T08:15:38;10.60;93.10
33761;DHT22;20084;47.912;19.044;2023-04-03T08:18:04;10.70;92.00
33761;DHT22;20084;47.912;19.044;2023-04-03T08:20:30;10.80;91.20
33761;DHT22;20084;47.912;19.044;2023-04-03T08:22:55;11.00;93.30
33761;DHT22;20084;47.912;19.044;2023-04-03T08:25:21;11.10;91.30
33761;DHT22;20084;47.912;19.044;2023-04-03T08:27:47;11.20;91.80
33761;DHT22;20084;47.912;19.044;2023-04-03T08:30:13;11.20;88.80
33761;DHT22;20084;47.912;19.044;2023-04-03T08:32:39;11.20;88.20
33761;DHT22;20084;47.912;19.044;2023-04-03T08:35:07;11.30;88.80
33761;DHT22;20084;47.912;19.044;2023-04-03T08:37:35;11.20;86.80
33761;DHT22;20084;47.912;19.044;2023-04-03T08:40:06;11.30;86.10
33761;DHT22;20084;47.912;19.044;2023-04-03T08:42:54;11.30;88.30
33761;DHT22;20084;47.912;19.044;2023-04-03T08:45:33;11.40;86.20
33761;DHT22;20084;47.912;19.044;2023-04-03T08:48:39;11.30;86.40
33761;DHT22;20084;47.912;19.044;2023-04-03T08:51:15;11.20;87.10
33761;DHT22;20084;47.912;19.044;2023-04-03T08:53:55;11.10;86.50
33761;DHT22;20084;47.912;19.044;2023-04-03T08:56:23;11.20;83.90
33761;DHT22;20084;47.912;19.044;2023-04-03T08:58:56;11.40;84.10
33761;DHT22;20084;47.912;19.044;2023-04-03T09:01:40;11.60;82.50
33761;DHT22;20084;47.912;19.044;2023-04-03T09:04:12;11.60;81.70
33761;DHT22;20084;47.912;19.044;2023-04-03T09:06:39;11.60;83.00
33761;DHT22;20084;47.912;19.044;2023-04-03T09:23:17;12.00;84.10
33761;DHT22;20084;47.912;19.044;2023-04-03T09:25:43;12.00;82.70
33761;DHT22;20084;47.912;19.044;2023-04-03T09:28:09;12.10;82.80
33761;DHT22;20084;47.912;19.044;2023-04-03T09:30:36;12.40;84.40
33761;DHT22;20084;47.912;19.044;2023-04-03T09:33:03;12.40;86.10
33761;DHT22;20084;47.912;19.044;2023-04-03T09:35:34;12.40;86.60
33761;DHT22;20084;47.912;19.044;2023-04-03T09:38:13;12.50;86.90
33761;DHT22;20084;47.912;19.044;2023-04-03T09:40:46;12.50;83.40
33761;DHT22;20084;47.912;19.044;2023-04-03T09:43:24;12.50;81.70
33761;DHT22;20084;47.912;19.044;2023-04-03T09:45:51;12.40;80.70
33761;DHT22;20084;47.912;19.044;2023-04-03T09:48:23;12.20;80.50
33761;DHT22;20084;47.912;19.044;2023-04-03T09:53:42;11.90;81.20
33761;DHT22;20084;47.912;19.044;2023-04-03T09:56:29;11.90;82.10
33761;DHT22;20084;47.912;19.044;2023-04-03T10:01:38;12.00;80.60
33761;DHT22;20084;47.912;19.044;2023-04-03T10:06:35;12.00;77.40
33761;DHT22;20084;47.912;19.044;2023-04-03T10:09:04;12.20;78.70
33761;DHT22;20084;47.912;19.044;2023-04-03T10:11:30;12.30;75.90
33761;DHT22;20084;47.912;19.044;2023-04-03T10:14:01;12.30;76.40
33761;DHT22;20084;47.912;19.044;2023-04-03T10:16:41;12.20;75.90
33761;DHT22;20084;47.912;19.044;2023-04-03T10:19:29;12.20;74.60
33761;DHT22;20084;47.912;19.044;2023-04-03T10:22:00;12.20;75.90
33761;DHT22;20084;47.912;19.044;2023-04-03T10:24:43;12.10;73.50
33761;DHT22;20084;47.912;19.044;2023-04-03T10:27:11;12.00;76.70
33761;DHT22;20084;47.912;19.044;2023-04-03T10:34:58;12.10;73.50
33761;DHT22;20084;47.912;19.044;2023-04-03T10:37:30;12.10;73.20
33761;DHT22;20084;47.912;19.044;2023-04-03T10:40:29;12.20;74.00
33761;DHT22;20084;47.912;19.044;2023-04-03T10:51:27;12.30;72.70
33761;DHT22;20084;47.912;19.044;2023-04-03T10:54:26;12.20;73.30
33761;DHT22;20084;47.912;19.044;2023-04-03T10:56:57;12.20;71.70
33761;DHT22;20084;47.912;19.044;2023-04-03T10:59:39;12.30;75.10
33761;DHT22;20084;47.912;19.044;2023-04-03T11:04:36;12.10;71.30
33761;DHT22;20084;47.912;19.044;2023-04-03T11:07:24;12.00;72.40
33761;DHT22;20084;47.912;19.044;2023-04-03T11:09:58;11.90;71.40
33761;DHT22;20084;47.912;19.044;2023-04-03T11:14:53;12.00;73.90
33761;DHT22;20084;47.912;19.044;2023-04-03T11:22:45;11.70;73.10
33761;DHT22;20084;47.912;19.044;2023-04-03T11:27:43;11.90;75.40
33761;DHT22;20084;47.912;19.044;2023-04-03T11:36:18;12.00;73.70
33761;DHT22;20084;47.912;19.044;2023-04-03T11:38:46;12.10;72.40
33761;DHT22;20084;47.912;19.044;2023-04-03T11:41:14;12.20;72.10
33761;DHT22;20084;47.912;19.044;2023-04-03T11:43:56;12.10;71.30
33761;DHT22;20084;47.912;19.044;2023-04-03T11:46:22;12.10;69.40
33761;DHT22;20084;47.912;19.044;2023-04-03T11:52:13;12.20;70.40
33761;DHT22;20084;47.912;19.044;2023-04-03T11:54:58;12.30;70.70
33761;DHT22;20084;47.912;19.044;2023-04-03T11:57:45;12.30;71.90
33761;DHT22;20084;47.912;19.044;2023-04-03T12:14:04;12.00;70.70
33761;DHT22;20084;47.912;19.044;2023-04-03T12:19:00;12.10;70.70
33761;DHT22;20084;47.912;19.044;2023-04-03T12:24:27;12.00;71.80
33761;DHT22;20084;47.912;19.044;2023-04-03T12:27:17;12.10;70.30
33761;DHT22;20084;47.912;19.044;2023-04-03T12:32:55;12.10;69.20
33761;DHT22;20084;47.912;19.044;2023-04-03T12:35:38;12.00;68.30
33761;DHT22;20084;47.912;19.044;2023-04-03T12:46:48;11.90;71.00
33761;DHT22;20084;47.912;19.044;2023-04-03T12:51:52;12.20;70.80
33761;DHT22;20084;47.912;19.044;2023-04-03T12:54:37;12.10;72.10
33761;DHT22;20084;47.912;19.044;2023-04-03T12:57:22;12.20;73.20
33761;DHT22;20084;47.912;19.044;2023-04-03T12:59:48;12.30;70.50
33761;DHT22;20084;47.912;19.044;2023-04-03T13:02:30;12.30;70.90
33761;DHT22;20084;47.912;19.044;2023-04-03T13:04:58;12.30;70.30
33761;DHT22;20084;47.912;19.044;2023-04-03T13:07:29;12.30;70.20
33761;DHT22;20084;47.912;19.044;2023-04-03T13:10:13;12.40;72.50
33761;DHT22;20084;47.912;19.044;2023-04-03T13:12:56;12.30;71.60
33761;DHT22;20084;47.912;19.044;2023-04-03T13:15:29;12.20;71.20
33761;DHT22;20084;47.912;19.044;2023-04-03T13:17:56;12.20;71.00
33761;DHT22;20084;47.912;19.044;2023-04-03T13:20:28;12.30;72.00
33761;DHT22;20084;47.912;19.044;2023-04-03T13:22:59;12.20;69.40
33761;DHT22;20084;47.912;19.044;2023-04-03T13:25:30;12.20;70.60
33761;DHT22;20084;47.912;19.044;2023-04-03T13:27:56;12.20;73.70
33761;DHT22;20084;47.912;19.044;2023-04-03T13:30:27;12.20;71.70
33761;DHT22;20084;47.912;19.044;2023-04-03T13:32:55;12.10;69.10
33761;DHT22;20084;47.912;19.044;2023-04-03T13:37:57;12.00;68.80
33761;DHT22;20084;47.912;19.044;2023-04-03T13:40:56;12.00;71.90
33761;DHT22;20084;47.912;19.044;2023-04-03T13:43:26;12.10;71.40
33761;DHT22;20084;47.912;19.044;2023-04-03T13:48:20;12.00;72.70
33761;DHT22;20084;47.912;19.044;2023-04-03T13:50:55;12.10;73.20
33761;DHT22;20084;47.912;19.044;2023-04-03T13:53:22;12.10;70.80
33761;DHT22;20084;47.912;19.044;2023-04-03T13:56:14;11.90;70.60
33761;DHT22;20084;47.912;19.044;2023-04-03T14:01:24;11.90;72.50
33761;DHT22;20084;47.912;19.044;2023-04-03T14:04:09;11.90;71.90
33761;DHT22;20084;47.912;19.044;2023-04-03T14:06:35;11.90;71.90
33761;DHT22;20084;47.912;19.044;2023-04-03T14:09:01;12.00;72.50
33761;DHT22;20084;47.912;19.044;2023-04-03T14:11:29;12.10;72.90
33761;DHT22;20084;47.912;19.044;2023-04-03T14:13:58;12.00;71.40
33761;DHT22;20084;47.912;19.044;2023-04-03T14:16:27;11.90;71.80
33761;DHT22;20084;47.912;19.044;2023-04-03T14:18:55;11.90;72.00
33761;DHT22;20084;47.912;19.044;2023-04-03T14:21:21;11.70;73.30
33761;DHT22;20084;47.912;19.044;2023-04-03T14:23:48;11.70;74.00
33761;DHT22;20084;47.912;19.044;2023-04-03T14:26:17;11.80;74.20
33761;DHT22;20084;47.912;19.044;2023-04-03T14:28:47;11.80;75.00
33761;DHT22;20084;47.912;19.044;2023-04-03T14:31:15;11.80;74.40
33761;DHT22;20084;47.912;19.044;2023-04-03T14:33:41;11.80;74.70
33761;DHT22;20084;47.912;19.044;2023-04-03T14:36:18;11.80;74.20
33761;DHT22;20084;47.912;19.044;2023-04-03T14:38:45;11.80;73.80
33761;DHT22;20084;47.912;19.044;2023-04-03T14:41:16;11.90;74.20
33761;DHT22;20084;47.912;19.044;2023-04-03T14:43:43;11.90;74.10
33761;DHT22;20084;47.912;19.044;2023-04-03T14:46:18;11.90;74.70
33761;DHT22;20084;47.912;19.044;2023-04-03T14:48:45;11.80;74.60
33761;DHT22;20084;47.912;19.044;2023-04-03T14:51:12;11.80;75.50
33761;DHT22;20084;47.912;19.044;2023-04-03T14:53:39;11.80;76.40
33761;DHT22;20084;47.912;19.044;2023-04-03T14:56:23;11.80;75.20
33761;DHT22;20084;47.912;19.044;2023-04-03T14:58:49;11.70;74.20
33761;DHT22;20084;47.912;19.044;2023-04-03T15:01:18;11.80;75.60
33761;DHT22;20084;47.912;19.044;2023-04-03T15:03:44;11.80;75.60
33761;DHT22;20084;47.912;19.044;2023-04-03T15:06:13;11.50;71.40
33761;DHT22;20084;47.912;19.044;2023-04-03T15:08:40;11.20;70.20
33761;DHT22;20084;47.912;19.044;2023-04-03T15:11:08;10.90;70.20
33761;DHT22;20084;47.912;19.044;2023-04-03T15:13:33;10.80;71.80
33761;DHT22;20084;47.912;19.044;2023-04-03T15:15:59;10.70;71.10
33761;DHT22;20084;47.912;19.044;2023-04-03T15:18:26;10.60;72.30
33761;DHT22;20084;47.912;19.044;2023-04-03T15:20:54;10.60;74.80
33761;DHT22;20084;47.912;19.044;2023-04-03T15:23:20;10.60;73.70
33761;DHT22;20084;47.912;19.044;2023-04-03T15:25:52;10.60;74.50
33761;DHT22;20084;47.912;19.044;2023-04-03T15:28:28;10.60;74.80
33761;DHT22;20084;47.912;19.044;2023-04-03T15:30:56;10.50;74.10
33761;DHT22;20084;47.912;19.044;2023-04-03T15:33:22;10.40;73.50
33761;DHT22;20084;47.912;19.044;2023-04-03T15:35:48;10.20;74.00
33761;DHT22;20084;47.912;19.044;2023-04-03T15:38:14;10.10;75.90
33761;DHT22;20084;47.912;19.044;2023-04-03T15:40:40;10.00;75.40
33761;DHT22;20084;47.912;19.044;2023-04-03T15:43:07;10.00;76.80
33761;DHT22;20084;47.912;19.044;2023-04-03T15:45:34;10.00;75.90
33761;DHT22;20084;47.912;19.044;2023-04-03T15:48:01;10.00;74.10
33761;DHT22;20084;47.912;19.044;2023-04-03T15:50:27;10.00;73.70
33761;DHT22;20084;47.912;19.044;2023-04-03T15:52:53;10.00;74.60
33761;DHT22;20084;47.912;19.044;2023-04-03T15:55:25;9.90;74.30
33761;DHT22;20084;47.912;19.044;2023-04-03T15:57:51;9.80;75.50
33761;DHT22;20084;47.912;19.044;2023-04-03T16:00:17;9.80;74.80
33761;DHT22;20084;47.912;19.044;2023-04-03T16:02:45;9.80;74.80
33761;DHT22;20084;47.912;19.044;2023-04-03T16:05:12;9.70;74.90
33761;DHT22;20084;47.912;19.044;2023-04-03T16:07:41;9.70;74.30
33761;DHT22;20084;47.912;19.044;2023-04-03T16:10:08;9.70;74.20
33761;DHT22;20084;47.912;19.044;2023-04-03T16:12:34;9.60;75.00
33761;DHT22;20084;47.912;19.044;2023-04-03T16:15:00;9.70;75.70
33761;DHT22;20084;47.912;19.044;2023-04-03T16:17:26;9.70;75.80
33761;DHT22;20084;47.912;19.044;2023-04-03T16:19:54;9.70;76.50
33761;DHT22;20084;47.912;19.044;2023-04-03T16:22:20;9.70;75.50
33761;DHT22;20084;47.912;19.044;2023-04-03T16:24:46;9.70;76.60
33761;DHT22;20084;47.912;19.044;2023-04-03T16:27:11;9.70;76.40
33761;DHT22;20084;47.912;19.044;2023-04-03T16:29:37;9.70;77.30
33761;DHT22;20084;47.912;19.044;2023-04-03T16:32:03;9.70;75.80
33761;DHT22;20084;47.912;19.044;2023-04-03T16:34:29;9.60;76.00
33761;DHT22;20084;47.912;19.044;2023-04-03T16:36:57;9.60;76.40
33761;DHT22;20084;47.912;19.044;2023-04-03T16:39:23;9.50;76.90
33761;DHT22;20084;47.912;19.044;2023-04-03T16:41:49;9.50;77.20
33761;DHT22;20084;47.912;19.044;2023-04-03T16:44:14;9.50;76.90
33761;DHT22;20084;47.912;19.044;2023-04-03T16:46:40;9.50;77.80
33761;DHT22;20084;47.912;19.044;2023-04-03T16:49:06;9.50;78.10
33761;DHT22;20084;47.912;19.044;2023-04-03T16:51:33;9.50;77.50
33761;DHT22;20084;47.912;19.044;2023-04-03T16:53:59;9.50;75.70
33761;DHT22;20084;47.912;19.044;2023-04-03T16:56:25;9.40;77.40
33761;DHT22;20084;47.912;19.044;2023-04-03T16:58:52;9.30;78.60
33761;DHT22;20084;47.912;19.044;2023-04-03T17:01:20;9.20;79.00
33761;DHT22;20084;47.912;19.044;2023-04-03T17:03:46;9.20;79.20
33761;DHT22;20084;47.912;19.044;2023-04-03T17:06:16;9.10;80.10
33761;DHT22;20084;47.912;19.044;2023-04-03T17:08:43;9.10;79.30
33761;DHT22;20084;47.912;19.044;2023-04-03T17:11:10;9.10;79.10
33761;DHT22;20084;47.912;19.044;2023-04-03T17:13:35;9.00;79.00
33761;DHT22;20084;47.912;19.044;2023-04-03T17:16:03;9.00;79.10
33761;DHT22;20084;47.912;19.044;2023-04-03T17:18:31;9.00;79.40
33761;DHT22;20084;47.912;19.044;2023-04-03T17:20:57;8.90;78.20